Aviation Digital Data Service (ADDS)

Output produced by METARs form (0155 UTC 05 June 2020)
found at http://www.aviationweather.gov/metar/data/
 
Forecast for: HAAB (ADDIS ABABA/BOLE, ET)
Text: TAF HAAB 042130Z 0500/0606 22002KT 9999 BKN025 BKN070
Forecast period: 0000 to 1600 UTC 05 June 2020
Forecast type: FROM: standard forecast or significant change
Winds: from the SW (220 degrees) at 2 MPH (2 knots; 1.0 m/s)
Visibility: 6 or more miles 10+ km)
Ceiling: 2500 feet AGL
Clouds: broken clouds at 2500 feet AGL
broken clouds at 7000 feet AGL
Weather: no significant weather forecast for this period
Text: BECMG 0516/0519 8000M -RA
Forecast period: 1600 UTC 05 June 2020 to 0600 UTC 06 June 2020
Forecast type: BECOMING: Conditions expected to become as follows by 1900 UTC 05 June 2020
Winds: from the SW (220 degrees) at 2 MPH (2 knots; 1.0 m/s)
Visibility: 5 miles (8 km)
Ceiling: 2500 feet AGL
Clouds: broken clouds at 2500 feet AGL
broken clouds at 7000 feet AGL
Weather: -RA  (light rain)